Steward, Illinois
Current Conditions -  °F | °C
As of 3:15 AM on Monday 24 Nov 2014 (Local Time) from KRPJ Reporting Station
Haze Haze  
Wind Chill: 42°   Ceiling: 200
Heat Index: 46°   Visibility: 2mi
Dew Point: 46°   Wind: 6mph
Humidity: 100%   Direction: 260°W
Pressure: 29.1"   Gusts: NA
Location:  41.85°N, 89.02°W
Report Text: KRPJ 240915Z AUTO 26005KT 2SM BR OVC002 08/08 A2910 RMK AO2 T00750075
Loading
Personal Weather Stations






























Interactive Weather Map New forecast layout! Learn more

10-Day Weather Forecast

Advertisements
Track Severe Weather on mobile